createdAt,value
2019-02-21T00:01:02.803Z,12.97
2019-02-21T00:03:32.274Z,14.63
2019-02-21T00:06:01.753Z,12.30
2019-02-21T00:08:31.214Z,14.73
2019-02-21T00:11:00.647Z,11.70
2019-02-21T00:13:30.104Z,11.70
2019-02-21T00:15:59.697Z,15.63
2019-02-21T00:18:28.975Z,15.00
2019-02-21T00:20:58.317Z,15.47
2019-02-21T00:23:27.708Z,14.47
2019-02-21T00:25:57.100Z,16.10
2019-02-21T00:28:26.386Z,12.40
2019-02-21T00:30:55.854Z,13.93
2019-02-21T00:33:25.422Z,17.23
2019-02-21T00:35:54.884Z,15.77
2019-02-21T00:38:24.216Z,14.50
2019-02-21T00:40:53.566Z,16.87
2019-02-21T00:43:23.327Z,16.07
2019-02-21T00:45:52.963Z,16.50
2019-02-21T00:48:22.393Z,16.97
2019-02-21T00:50:51.787Z,17.73
2019-02-21T00:53:21.191Z,17.17
2019-02-21T00:55:50.587Z,17.43
2019-02-21T00:58:20.029Z,17.87
2019-02-21T01:00:49.397Z,17.33
2019-02-21T01:03:19.263Z,17.30
2019-02-21T01:05:48.674Z,16.20
2019-02-21T01:08:18.139Z,15.23
2019-02-21T01:10:47.555Z,17.03
2019-02-21T01:13:16.915Z,17.50
2019-02-21T01:15:46.353Z,15.93
2019-02-21T01:18:15.704Z,17.13
2019-02-21T01:20:45.090Z,15.77
2019-02-21T01:23:14.600Z,18.60
2019-02-21T01:25:44.319Z,17.13
2019-02-21T01:28:13.741Z,19.80
2019-02-21T01:30:43.136Z,21.10
2019-02-21T01:33:12.548Z,17.00
2019-02-21T01:35:41.932Z,17.27
2019-02-21T01:38:30.667Z,16.87
2019-02-21T01:41:00.087Z,16.77
2019-02-21T01:43:29.473Z,18.00
2019-02-21T01:45:59.171Z,19.00
2019-02-21T01:48:29.634Z,18.73
2019-02-21T01:50:59.046Z,16.47
2019-02-21T01:53:28.481Z,16.97
2019-02-21T01:55:57.871Z,17.90
2019-02-21T01:58:27.543Z,16.37
2019-02-21T02:01:07.617Z,18.23
2019-02-21T02:03:28.750Z,16.93
2019-02-21T02:05:58.555Z,17.83
2019-02-21T02:08:27.879Z,21.20
2019-02-21T02:10:57.237Z,18.73
2019-02-21T02:13:26.613Z,16.00
2019-02-21T02:15:56.047Z,16.10
2019-02-21T02:18:25.433Z,16.37
2019-02-21T02:20:54.776Z,16.67
2019-02-21T02:23:24.207Z,14.07
2019-02-21T02:25:53.595Z,15.70
2019-02-21T02:28:22.961Z,13.93
2019-02-21T02:30:52.409Z,15.60
2019-02-21T02:33:21.781Z,17.40
2019-02-21T02:35:51.246Z,20.53
2019-02-21T02:38:20.644Z,18.57
2019-02-21T02:40:50.049Z,17.70
2019-02-21T02:43:19.403Z,17.77
2019-02-21T02:45:48.754Z,16.37
2019-02-21T02:48:18.073Z,15.30
2019-02-21T02:50:47.431Z,15.60
2019-02-21T02:53:16.797Z,16.73
2019-02-21T02:55:46.247Z,15.27
2019-02-21T02:58:15.613Z,14.30
2019-02-21T03:00:45.013Z,23.73
2019-02-21T03:03:14.731Z,15.87
2019-02-21T03:05:44.881Z,15.27
2019-02-21T03:08:14.301Z,18.33
2019-02-21T03:10:43.706Z,16.00
2019-02-21T03:13:13.112Z,19.80
2019-02-21T03:15:42.481Z,17.93
2019-02-21T03:18:11.915Z,14.10
2019-02-21T03:20:41.300Z,18.30
2019-02-21T03:23:10.690Z,14.80
2019-02-21T03:25:40.117Z,15.63
2019-02-21T03:28:09.424Z,17.43
2019-02-21T03:30:38.650Z,16.73
2019-02-21T03:33:07.962Z,14.80
2019-02-21T03:35:37.313Z,15.00
2019-02-21T03:38:06.755Z,17.50
2019-02-21T03:40:36.426Z,17.37
2019-02-21T03:43:05.985Z,15.47
2019-02-21T03:45:35.441Z,16.57
2019-02-21T03:48:04.792Z,17.93
2019-02-21T03:50:34.187Z,16.07
2019-02-21T03:53:03.696Z,18.67
2019-02-21T03:55:33.188Z,19.00
2019-02-21T03:58:02.594Z,15.97
2019-02-21T04:00:31.910Z,16.63
2019-02-21T04:03:01.312Z,17.90
2019-02-21T04:05:30.712Z,17.30
2019-02-21T04:08:00.129Z,21.03
2019-02-21T04:10:29.554Z,16.90
2019-02-21T04:12:58.851Z,21.33
2019-02-21T04:15:28.187Z,18.20
2019-02-21T04:17:57.713Z,19.53
2019-02-21T04:20:27.005Z,18.03
2019-02-21T04:22:56.363Z,17.63
2019-02-21T04:25:25.855Z,17.87
2019-02-21T04:27:55.205Z,17.17
2019-02-21T04:30:24.840Z,19.13
2019-02-21T04:32:54.354Z,18.67
2019-02-21T04:35:23.851Z,19.87
2019-02-21T04:37:53.270Z,19.50
2019-02-21T04:40:22.730Z,19.07
2019-02-21T04:42:52.199Z,19.73
2019-02-21T04:45:21.592Z,20.43
2019-02-21T04:47:50.987Z,18.50
2019-02-21T04:50:20.365Z,23.13
2019-02-21T04:52:50.132Z,21.13
2019-02-21T04:55:19.688Z,18.47
2019-02-21T04:57:49.081Z,22.37
2019-02-21T05:00:18.477Z,21.97
2019-02-21T05:02:47.817Z,21.23
2019-02-21T05:05:17.130Z,19.57
2019-02-21T05:07:46.535Z,21.93
2019-02-21T05:10:15.921Z,22.83
2019-02-21T05:12:45.345Z,20.40
2019-02-21T05:15:33.789Z,21.33
2019-02-21T05:18:03.522Z,20.50
2019-02-21T05:20:32.928Z,19.87
2019-02-21T05:23:02.387Z,21.30
2019-02-21T05:25:31.785Z,19.90
2019-02-21T05:28:19.485Z,23.77
2019-02-21T05:30:50.633Z,21.60
2019-02-21T05:33:37.890Z,23.63
2019-02-21T05:36:38.274Z,21.97
2019-02-21T05:39:26.558Z,22.27
2019-02-21T05:42:33.386Z,23.63
2019-02-21T05:45:27.775Z,23.40
2019-02-21T05:48:15.026Z,21.77
2019-02-21T05:50:52.344Z,23.17
2019-02-21T05:53:40.621Z,22.47
2019-02-21T05:56:35.045Z,24.73
2019-02-21T05:59:18.087Z,20.63
2019-02-21T06:01:56.011Z,21.50
2019-02-21T06:04:52.068Z,25.30
2019-02-21T06:07:47.464Z,25.70
2019-02-21T06:10:48.203Z,24.10
2019-02-21T06:13:28.408Z,22.10
2019-02-21T06:16:06.175Z,22.20
2019-02-21T06:18:55.131Z,23.73
2019-02-21T06:21:39.634Z,22.13
2019-02-21T06:24:34.485Z,21.80
2019-02-21T06:27:25.576Z,26.17
2019-02-21T06:30:01.368Z,23.07
2019-02-21T06:32:30.764Z,20.80
2019-02-21T06:35:02.658Z,22.00
2019-02-21T06:37:31.573Z,21.83
2019-02-21T06:40:00.988Z,21.23
2019-02-21T06:42:30.309Z,22.13
2019-02-21T06:44:59.777Z,25.07
2019-02-21T06:47:29.175Z,21.50
2019-02-21T06:49:58.849Z,22.07
2019-02-21T06:52:28.353Z,22.23
2019-02-21T06:54:57.744Z,21.87
2019-02-21T06:57:27.104Z,23.90
2019-02-21T06:59:56.445Z,23.50
2019-02-21T07:02:28.035Z,25.33
2019-02-21T07:04:56.886Z,22.20
2019-02-21T07:07:27.007Z,22.20
2019-02-21T07:09:56.429Z,25.60
2019-02-21T07:12:25.853Z,23.03
2019-02-21T07:14:55.263Z,24.20
2019-02-21T07:17:24.614Z,24.87
2019-02-21T07:19:54.036Z,24.03
2019-02-21T07:22:23.366Z,21.27
2019-02-21T07:24:56.407Z,22.27
2019-02-21T07:27:25.800Z,23.30
2019-02-21T07:29:55.538Z,22.07
2019-02-21T07:32:25.002Z,22.13
2019-02-21T07:34:54.380Z,23.93
2019-02-21T07:37:23.728Z,25.60
2019-02-21T07:39:53.116Z,21.10
2019-02-21T07:42:22.546Z,21.50
2019-02-21T07:44:51.921Z,24.63
2019-02-21T07:47:21.436Z,24.30
2019-02-21T07:49:50.843Z,23.60
2019-02-21T07:52:20.272Z,24.77
2019-02-21T07:55:01.066Z,24.80
2019-02-21T07:57:21.478Z,21.70
2019-02-21T07:59:50.852Z,23.10
2019-02-21T08:02:21.056Z,25.80
2019-02-21T08:04:50.608Z,29.13
2019-02-21T08:07:20.092Z,22.33
2019-02-21T08:09:50.348Z,24.30
2019-02-21T08:12:19.782Z,24.97
2019-02-21T08:14:49.210Z,24.20
2019-02-21T08:17:18.647Z,25.30
2019-02-21T08:19:48.107Z,22.60
2019-02-21T08:22:17.955Z,27.40
2019-02-21T08:24:47.384Z,25.83
2019-02-21T08:27:16.762Z,24.37
2019-02-21T08:29:46.173Z,25.60
2019-02-21T08:32:17.635Z,22.83
2019-02-21T08:34:49.621Z,24.30
2019-02-21T08:37:18.929Z,24.47
2019-02-21T08:39:48.402Z,27.93
2019-02-21T08:42:17.814Z,23.90
2019-02-21T08:44:47.250Z,25.50
2019-02-21T08:47:16.728Z,24.57
2019-02-21T08:49:46.157Z,25.50
2019-02-21T08:52:16.296Z,26.73
2019-02-21T08:54:45.676Z,25.17
2019-02-21T08:57:15.046Z,23.90
2019-02-21T08:59:44.464Z,23.17
2019-02-21T09:02:14.407Z,24.97
2019-02-21T09:04:43.824Z,27.23
2019-02-21T09:07:13.221Z,25.03
2019-02-21T09:09:42.568Z,23.40
2019-02-21T09:12:11.931Z,22.00
2019-02-21T09:14:41.366Z,25.17
2019-02-21T09:17:10.786Z,21.57
2019-02-21T09:19:40.282Z,22.83
2019-02-21T09:22:10.228Z,22.27
2019-02-21T09:24:42.390Z,21.97
2019-02-21T09:27:10.634Z,20.47
2019-02-21T09:29:39.970Z,24.10
2019-02-21T09:32:09.400Z,20.33
2019-02-21T09:34:38.781Z,22.97
2019-02-21T09:37:08.218Z,21.07
2019-02-21T09:39:37.616Z,22.90
2019-02-21T09:42:06.944Z,22.33
2019-02-21T09:44:36.240Z,24.07
2019-02-21T09:47:05.918Z,20.57
2019-02-21T09:49:35.300Z,21.60
2019-02-21T09:52:04.902Z,21.50
2019-02-21T09:54:34.268Z,19.07
2019-02-21T09:57:12.912Z,19.93
2019-02-21T09:59:35.118Z,18.70
2019-02-21T10:02:04.450Z,21.23
2019-02-21T10:04:33.938Z,21.00
2019-02-21T10:07:03.351Z,19.00
2019-02-21T10:09:33.109Z,21.90
2019-02-21T10:12:02.765Z,23.27
2019-02-21T10:14:32.195Z,20.80
2019-02-21T10:17:01.572Z,23.23
2019-02-21T10:19:31.234Z,21.43
2019-02-21T10:22:00.663Z,19.83
2019-02-21T10:24:30.500Z,24.37
2019-02-21T10:26:59.923Z,20.67
2019-02-21T10:29:29.896Z,20.83
2019-02-21T10:31:59.528Z,20.43
2019-02-21T10:34:28.851Z,21.70
2019-02-21T10:36:58.704Z,20.40
2019-02-21T10:39:28.070Z,18.23
2019-02-21T10:41:57.460Z,19.47
2019-02-21T10:44:26.874Z,19.03
2019-02-21T10:46:56.265Z,21.47
2019-02-21T10:49:25.707Z,20.40
2019-02-21T10:51:55.480Z,24.03
2019-02-21T10:54:24.927Z,20.60
2019-02-21T10:56:54.368Z,20.13
2019-02-21T10:59:23.692Z,19.53
2019-02-21T11:01:53.524Z,19.63
2019-02-21T11:04:22.941Z,19.33
2019-02-21T11:06:52.394Z,20.43
2019-02-21T11:09:23.108Z,20.10
2019-02-21T11:11:52.623Z,20.77
2019-02-21T11:14:22.030Z,19.93
2019-02-21T11:16:51.714Z,20.67
2019-02-21T11:19:21.490Z,23.50
2019-02-21T11:21:50.864Z,19.57
2019-02-21T11:24:20.506Z,22.70
2019-02-21T11:26:50.254Z,20.00
2019-02-21T11:29:19.653Z,21.00
2019-02-21T11:31:49.430Z,21.43
2019-02-21T11:34:18.872Z,24.37
2019-02-21T11:36:48.242Z,21.43
2019-02-21T11:39:17.570Z,23.57
2019-02-21T11:41:46.906Z,22.70
2019-02-21T11:44:16.323Z,22.97
2019-02-21T11:46:45.664Z,21.00
2019-02-21T11:49:16.158Z,23.10
2019-02-21T11:51:45.534Z,23.93
2019-02-21T11:54:24.205Z,19.17
2019-02-21T11:56:46.402Z,21.67
2019-02-21T11:59:16.197Z,20.80
2019-02-21T12:01:45.782Z,26.07
2019-02-21T12:04:15.280Z,20.50
2019-02-21T12:06:44.713Z,26.07
2019-02-21T12:09:14.110Z,22.20
2019-02-21T12:11:43.909Z,23.13
2019-02-21T12:14:13.355Z,23.63
2019-02-21T12:16:42.698Z,23.20
2019-02-21T12:19:12.185Z,23.67
2019-02-21T12:21:41.620Z,22.80
2019-02-21T12:24:10.998Z,28.30
2019-02-21T12:26:40.349Z,24.00
2019-02-21T12:29:09.747Z,23.73
2019-02-21T12:31:39.184Z,23.13
2019-02-21T12:34:08.576Z,22.10
2019-02-21T12:36:37.956Z,21.67
2019-02-21T12:39:07.800Z,24.67
2019-02-21T12:41:37.197Z,22.07
2019-02-21T12:44:06.897Z,22.97
2019-02-21T12:46:36.335Z,24.60
2019-02-21T12:49:05.812Z,22.50
2019-02-21T12:51:35.258Z,23.50
2019-02-21T12:54:04.639Z,26.90
2019-02-21T12:56:34.091Z,29.03
2019-02-21T12:59:03.465Z,26.20
2019-02-21T13:01:32.896Z,26.20
2019-02-21T13:04:02.276Z,26.13
2019-02-21T13:06:31.724Z,23.10
2019-02-21T13:09:01.112Z,27.17
2019-02-21T13:11:30.492Z,26.30
2019-02-21T13:14:00.223Z,25.83
2019-02-21T13:16:29.761Z,26.17
2019-02-21T13:18:59.075Z,25.10
2019-02-21T13:21:28.915Z,26.43
2019-02-21T13:23:58.386Z,28.27
2019-02-21T13:26:28.141Z,27.27
2019-02-21T13:28:57.508Z,29.10
2019-02-21T13:31:26.919Z,30.00
2019-02-21T13:33:56.323Z,27.97
2019-02-21T13:36:25.740Z,29.37
2019-02-21T13:38:55.155Z,25.33
2019-02-21T13:41:24.497Z,28.57
2019-02-21T13:43:53.891Z,24.57
2019-02-21T13:46:23.294Z,26.90
2019-02-21T13:48:53.098Z,28.13
2019-02-21T13:51:22.527Z,25.03
2019-02-21T13:53:52.444Z,26.40
2019-02-21T13:56:22.302Z,27.93
2019-02-21T13:58:51.881Z,28.23
2019-02-21T14:01:21.269Z,27.50
2019-02-21T14:03:50.724Z,31.27
2019-02-21T14:06:20.112Z,30.67
2019-02-21T14:08:49.524Z,26.57
2019-02-21T14:11:19.304Z,28.53
2019-02-21T14:13:48.655Z,25.47
2019-02-21T14:16:18.101Z,30.97
2019-02-21T14:18:47.486Z,28.77
2019-02-21T14:21:16.940Z,30.97
2019-02-21T14:23:46.289Z,28.73
2019-02-21T14:26:16.078Z,30.00
2019-02-21T14:28:45.832Z,29.40
2019-02-21T14:31:15.186Z,32.80
2019-02-21T14:33:44.955Z,30.83
2019-02-21T14:36:16.764Z,33.37
2019-02-21T14:38:45.297Z,30.73
2019-02-21T14:41:14.961Z,30.83
2019-02-21T14:43:44.368Z,30.80
2019-02-21T14:46:13.840Z,27.87
2019-02-21T14:48:43.183Z,30.23
2019-02-21T14:51:12.653Z,31.80
2019-02-21T14:53:42.062Z,28.63
2019-02-21T14:56:11.527Z,28.13
2019-02-21T14:58:40.890Z,30.13
2019-02-21T15:01:10.431Z,32.53
2019-02-21T15:03:39.925Z,29.67
2019-02-21T15:06:09.403Z,28.20
2019-02-21T15:08:38.753Z,30.63
2019-02-21T15:11:08.175Z,27.77
2019-02-21T15:13:37.581Z,35.90
2019-02-21T15:16:06.991Z,26.23
2019-02-21T15:18:36.507Z,26.63
2019-02-21T15:21:05.915Z,31.87
2019-02-21T15:23:37.070Z,31.30
2019-02-21T15:26:06.408Z,29.13
2019-02-21T15:28:35.835Z,31.97
2019-02-21T15:31:05.138Z,29.97
2019-02-21T15:33:34.560Z,28.57
2019-02-21T15:36:03.881Z,30.77
2019-02-21T15:38:33.247Z,56.03
2019-02-21T15:41:02.648Z,51.67
2019-02-21T15:43:32.039Z,33.83
2019-02-21T15:46:01.439Z,28.90
2019-02-21T15:48:30.892Z,255.50
2019-02-21T15:51:00.251Z,199.37
2019-02-21T15:53:49.099Z,48.40
2019-02-21T15:56:18.511Z,33.47
2019-02-21T15:58:47.857Z,42.53
2019-02-21T16:01:17.313Z,33.50
2019-02-21T16:03:46.739Z,27.60
2019-02-21T16:06:16.140Z,27.50
2019-02-21T16:08:45.513Z,28.77
2019-02-21T16:11:14.965Z,26.10
2019-02-21T16:13:44.474Z,23.80
2019-02-21T16:16:13.872Z,23.87
2019-02-21T16:18:43.201Z,22.50
2019-02-21T16:21:12.742Z,23.30
2019-02-21T16:23:42.271Z,22.00
2019-02-21T16:26:11.733Z,21.40
2019-02-21T16:28:41.127Z,24.03
2019-02-21T16:31:10.505Z,23.53
2019-02-21T16:33:40.157Z,23.13
2019-02-21T16:36:09.722Z,21.57
2019-02-21T16:38:39.067Z,22.00
2019-02-21T16:41:08.362Z,22.30
2019-02-21T16:43:37.661Z,21.00
2019-02-21T16:46:08.063Z,20.73
2019-02-21T16:48:38.297Z,20.67
2019-02-21T16:51:07.810Z,21.37
2019-02-21T16:53:56.281Z,19.70
2019-02-21T16:56:26.651Z,25.60
2019-02-21T16:58:56.185Z,19.53
2019-02-21T17:01:25.540Z,20.60
2019-02-21T17:03:54.920Z,20.83
2019-02-21T17:06:24.324Z,22.37
2019-02-21T17:08:53.757Z,22.47
2019-02-21T17:11:23.246Z,21.80
2019-02-21T17:13:53.550Z,21.93
2019-02-21T17:16:22.965Z,21.63
2019-02-21T17:18:52.382Z,22.63
2019-02-21T17:21:21.979Z,20.67
2019-02-21T17:23:51.385Z,23.10
2019-02-21T17:26:20.879Z,21.33
2019-02-21T17:28:50.274Z,22.20
2019-02-21T17:31:19.999Z,22.10
2019-02-21T17:33:49.667Z,21.83
2019-02-21T17:36:19.021Z,22.10
2019-02-21T17:38:48.862Z,21.73
2019-02-21T17:41:18.312Z,23.77
2019-02-21T17:43:48.063Z,22.73
2019-02-21T17:46:17.934Z,23.73
2019-02-21T17:48:47.265Z,24.33
2019-02-21T17:51:16.629Z,23.50
2019-02-21T17:53:46.037Z,24.50
2019-02-21T17:56:15.823Z,25.13
2019-02-21T17:58:45.239Z,23.60
2019-02-21T18:01:14.540Z,25.07
2019-02-21T18:03:44.321Z,23.27
2019-02-21T18:06:13.983Z,23.97
2019-02-21T18:08:43.385Z,22.77
2019-02-21T18:11:12.820Z,23.70
2019-02-21T18:13:42.238Z,25.03
2019-02-21T18:16:11.698Z,24.03
2019-02-21T18:18:41.379Z,24.70
2019-02-21T18:21:10.900Z,26.77
2019-02-21T18:23:40.276Z,25.60
2019-02-21T18:26:16.583Z,24.67
2019-02-21T18:28:45.984Z,24.17
2019-02-21T18:31:15.300Z,25.23
2019-02-21T18:33:44.727Z,24.93
2019-02-21T18:36:14.849Z,24.23
2019-02-21T18:38:44.422Z,27.47
2019-02-21T18:41:14.020Z,24.80
2019-02-21T18:43:43.376Z,26.63
2019-02-21T18:46:12.792Z,25.80
2019-02-21T18:48:42.170Z,26.67
2019-02-21T18:51:11.932Z,29.27
2019-02-21T18:53:41.395Z,25.37
2019-02-21T18:56:11.280Z,26.50
2019-02-21T18:58:40.680Z,25.57
2019-02-21T19:01:10.100Z,28.13
2019-02-21T19:03:39.434Z,28.70
2019-02-21T19:06:09.456Z,29.03
2019-02-21T19:08:38.851Z,28.17
2019-02-21T19:11:08.291Z,29.77
2019-02-21T19:13:37.832Z,27.43
2019-02-21T19:16:07.242Z,28.33
2019-02-21T19:18:36.707Z,26.03
2019-02-21T19:21:06.532Z,28.27
2019-02-21T19:23:36.012Z,26.10
2019-02-21T19:26:05.402Z,28.43
2019-02-21T19:28:34.844Z,26.13
2019-02-21T19:31:11.586Z,29.20
2019-02-21T19:33:41.488Z,25.10
2019-02-21T19:36:12.942Z,24.00
2019-02-21T19:38:42.380Z,26.80
2019-02-21T19:41:12.008Z,26.07
2019-02-21T19:43:41.458Z,24.67
2019-02-21T19:46:10.913Z,23.30
2019-02-21T19:48:40.255Z,28.30
2019-02-21T19:51:09.702Z,22.97
2019-02-21T19:53:39.080Z,24.97
2019-02-21T19:56:08.538Z,22.53
2019-02-21T19:58:38.034Z,22.70
2019-02-21T20:01:07.457Z,21.53
2019-02-21T20:03:37.084Z,22.20
2019-02-21T20:06:06.555Z,24.33
2019-02-21T20:08:35.980Z,24.40
2019-02-21T20:11:05.506Z,22.53
2019-02-21T20:13:35.002Z,24.00
2019-02-21T20:16:04.397Z,23.07
2019-02-21T20:18:33.779Z,23.83
2019-02-21T20:21:03.778Z,24.37
2019-02-21T20:23:33.674Z,21.00
2019-02-21T20:26:03.230Z,22.50
2019-02-21T20:28:32.652Z,24.73
2019-02-21T20:31:02.112Z,23.93
2019-02-21T20:33:31.548Z,24.33
2019-02-21T20:36:01.548Z,24.37
2019-02-21T20:38:32.356Z,25.07
2019-02-21T20:41:02.027Z,26.37
2019-02-21T20:43:31.516Z,24.90
2019-02-21T20:46:01.029Z,27.03
2019-02-21T20:48:30.739Z,27.47
2019-02-21T20:51:01.785Z,27.10
2019-02-21T20:53:31.376Z,28.63
2019-02-21T20:56:01.027Z,30.70
2019-02-21T20:58:30.963Z,31.80
2019-02-21T21:01:01.703Z,29.80
2019-02-21T21:03:31.441Z,33.63
2019-02-21T21:06:01.079Z,35.10
2019-02-21T21:08:30.493Z,33.20
2019-02-21T21:11:00.464Z,35.37
2019-02-21T21:13:30.182Z,34.97
2019-02-21T21:15:59.527Z,33.73
2019-02-21T21:18:28.985Z,33.47
2019-02-21T21:20:58.411Z,32.93
2019-02-21T21:23:27.838Z,35.17
2019-02-21T21:25:57.260Z,34.83
2019-02-21T21:28:26.678Z,35.17
2019-02-21T21:30:56.492Z,35.50
2019-02-21T21:33:26.310Z,36.63
2019-02-21T21:35:55.698Z,36.20
2019-02-21T21:38:25.084Z,38.60
2019-02-21T21:40:55.070Z,38.50
2019-02-21T21:43:24.461Z,40.00
2019-02-21T21:45:53.840Z,37.40
2019-02-21T21:48:23.170Z,37.00
2019-02-21T21:50:52.572Z,37.47
2019-02-21T21:53:22.003Z,38.97
2019-02-21T21:55:51.414Z,39.07
2019-02-21T21:58:21.250Z,37.57
2019-02-21T22:00:51.029Z,40.80
2019-02-21T22:03:20.436Z,39.27
2019-02-21T22:05:50.565Z,39.93
2019-02-21T22:08:41.282Z,40.93
2019-02-21T22:11:10.757Z,41.63
2019-02-21T22:13:40.660Z,43.30
2019-02-21T22:16:10.068Z,40.43
2019-02-21T22:18:39.495Z,42.00
2019-02-21T22:21:08.808Z,44.00
2019-02-21T22:23:38.222Z,41.87
2019-02-21T22:26:07.592Z,44.23
2019-02-21T22:28:37.287Z,43.83
2019-02-21T22:31:06.632Z,43.50
2019-02-21T22:33:36.414Z,41.33
2019-02-21T22:36:06.043Z,43.90
2019-02-21T22:38:35.462Z,47.30
2019-02-21T22:41:04.888Z,46.57
2019-02-21T22:43:34.256Z,43.33
2019-02-21T22:46:03.951Z,47.17
2019-02-21T22:48:33.326Z,44.63
2019-02-21T22:51:02.758Z,43.33
2019-02-21T22:53:32.213Z,46.47
2019-02-21T22:56:01.634Z,44.10
2019-02-21T22:58:31.099Z,46.33
2019-02-21T23:01:22.470Z,43.90
2019-02-21T23:03:55.348Z,45.07
2019-02-21T23:06:57.842Z,40.77
2019-02-21T23:09:28.300Z,50.27
2019-02-21T23:11:57.888Z,46.07
2019-02-21T23:14:27.278Z,45.57
2019-02-21T23:16:56.597Z,45.37
2019-02-21T23:19:25.951Z,50.30
2019-02-21T23:21:55.306Z,45.00
2019-02-21T23:24:24.688Z,47.93
2019-02-21T23:26:54.037Z,46.17
2019-02-21T23:29:23.421Z,50.53
2019-02-21T23:31:52.845Z,46.43
2019-02-21T23:34:46.957Z,46.17
2019-02-21T23:37:16.375Z,46.37
2019-02-21T23:39:45.825Z,45.60
2019-02-21T23:42:15.225Z,46.60
2019-02-21T23:44:44.619Z,49.00
2019-02-21T23:47:14.035Z,45.40
2019-02-21T23:49:43.419Z,45.97
2019-02-21T23:52:12.803Z,47.30
2019-02-21T23:54:42.299Z,48.27
2019-02-21T23:57:11.667Z,48.70
2019-02-21T23:59:41.075Z,54.30
